Flight Track Log - Related Links

Times and Time Zones

All times are in EDT time to prevent confusion due to time zone crossing. See the CJT574 flight status page for this flight to view local times or setup timezone preferences in your user account.

Time Position Orientation Groundspeed Altitude Reporting Facility
EDT Latitude Longitude Course Direction KTS MPH feet Rate Location/Type
Tue 01:51:58 AM 49.8833 -97.2333 360° North 10 12 800  Level Winnipeg Center
Tue 01:53:58 AM 49.8833 -97.2333 327° Northwest 20 23 800  Level Winnipeg Center
Tue 01:54:57 AM 49.8833 -97.2333 327° Northwest 10 12 800  Level Winnipeg Center
Tue 01:56:58 AM 49.9000 -97.2333 360° North 130 150 800 597 Level Winnipeg Center
Tue 01:57:58 AM 49.9333 -97.2333 360° North 150 173 2,600 1,563 Climbing Winnipeg Center
Tue 01:58:57 AM 49.9833 -97.2333 360° North 180 207 3,900 1,150 Climbing Winnipeg Center
Tue 01:59:58 AM 50.0333 -97.1667 41° Northeast 230 265 4,900 1,537 Climbing Winnipeg Center
Tue 02:00:58 AM 50.0000 -97.0667 117° Southeast 280 322 7,000 2,350 Climbing Winnipeg Center
Tue 02:01:58 AM 49.9500 -97.0000 139° Southeast 270 311 9,600 2,100 Climbing Winnipeg Center
Tue 02:02:58 AM 49.8833 -96.9333 147° Southeast 270 311 11,200 1,916 Climbing Winnipeg Center
Tue 02:03:57 AM 49.8167 -96.9333 180° South 270 311 13,400 1,950 Climbing Winnipeg Center
Tue 02:04:58 AM 49.7333 -96.9333 180° South 260 299 15,100 1,750 Climbing Winnipeg Center
Tue 02:05:57 AM 49.6833 -96.8667 139° Southeast 340 391 16,900 1,513 Climbing Winnipeg Center
Tue 02:06:57 AM 49.6500 -96.7000 107° East 360 414 18,100 1,240 Climbing Winnipeg Center
Tue 02:07:58 AM 49.6000 -96.5500 117° Southeast 380 437 19,400 1,240 Climbing Winnipeg Center
Tue 02:08:58 AM 49.5667 -96.4000 109° East 380 437 20,600 1,050 Climbing Winnipeg Center
Tue 02:09:58 AM 49.5167 -96.2500 117° Southeast 400 460 21,500 655 Climbing Winnipeg Center
Tue 02:10:57 AM 49.4500 -96.0667 119° Southeast 420 483 21,900 450 Climbing Winnipeg Center
Tue 02:11:58 AM 49.4000 -95.9167 117° Southeast 450 518 22,400 400 Climbing Winnipeg Center
Tue 02:12:57 AM 49.3000 -95.7667 136° Southeast 460 529 22,700 353 Climbing Winnipeg Center
Tue 02:13:57 AM 49.2167 -95.6167 130° Southeast 480 552 23,100 400 Climbing Winnipeg Center
Tue 02:14:57 AM 49.1500 -95.4333 119° Southeast 490 564 23,500 1,150 Climbing Winnipeg Center
Tue 02:15:57 AM 49.1000 -95.2333 111° Southeast 510 587 25,400 1,950 Climbing Winnipeg Center
Tue 02:16:57 AM 49.0500 -95.0500 113° Southeast 490 564 27,400 1,500 Climbing Winnipeg Center
Tue 02:17:57 AM 48.9833 -94.8500 117° Southeast 480 552 28,400 950 Climbing Winnipeg Center
Tue 02:18:57 AM 48.9333 -94.6833 114° Southeast 490 564 29,300 850 Climbing Winnipeg Center
Tue 02:19:57 AM 48.8833 -94.4667 109° East 490 564 30,100 780 Climbing Winnipeg Center
Tue 02:21:00 AM 48.8364 -94.3008 113° Southeast 499 574 30,900 780 Climbing Minneapolis Center
Tue 02:22:00 AM 48.7789 -94.1064 114° Southeast 504 580 31,700 793 Climbing Minneapolis Center
Tue 02:23:01 AM 48.7203 -93.9111 114° Southeast 507 583 32,500 843 Climbing Minneapolis Center
Tue 02:24:01 AM 48.6617 -93.7172 115° Southeast 508 585 33,400 800 Climbing Minneapolis Center
Tue 02:25:01 AM 48.6028 -93.5244 115° Southeast 506 582 34,100 650 Climbing Minneapolis Center
Tue 02:26:01 AM 48.5439 -93.3311 115° Southeast 506 582 34,700 446 Climbing Minneapolis Center
Tue 02:27:02 AM 48.4842 -93.1386 115° Southeast 507 583 35,000 149 Climbing Minneapolis Center
Tue 02:28:02 AM 48.4228 -92.9433 115° Southeast 510 587 35,000 -50 Level Minneapolis Center
Tue 02:29:02 AM 48.3614 -92.7481 115° Southeast 513 590 34,900 -50 Descending Minneapolis Center
Tue 02:30:02 AM 48.3008 -92.5528 115° Southeast 514 592 34,900 50 Level Minneapolis Center
Tue 02:31:03 AM 48.2386 -92.3586 116° Southeast 515 593 35,000  Climbing Minneapolis Center
Tue 02:32:03 AM 48.1758 -92.1633 116° Southeast 518 596 34,900 -50 Descending Minneapolis Center
Tue 02:33:03 AM 48.1125 -91.9678 116° Southeast 520 598 34,900  Level Minneapolis Center
Tue 02:34:04 AM 48.0492 -91.7719 116° Southeast 523 602 34,900 50 Level Minneapolis Center
Tue 02:35:04 AM 47.9853 -91.5767 116° Southeast 523 602 35,000  Climbing Minneapolis Center
Tue 02:36:04 AM 47.9217 -91.3806 116° Southeast 524 603 34,900  Descending Minneapolis Center
Tue 02:37:04 AM 47.8578 -91.1864 116° Southeast 524 603 35,000  Climbing Minneapolis Center
Tue 02:38:05 AM 47.7922 -90.9914 117° Southeast 525 604 34,900 -49 Descending Minneapolis Center
Tue 02:39:07 AM 47.7272 -90.7975 116° Southeast 524 603 34,900  Level Minneapolis Center
Tue 02:40:07 AM 47.6603 -90.6022 117° Southeast 529 609 34,900  Level Minneapolis Center
Tue 02:41:08 AM 47.5928 -90.4053 117° Southeast 534 615 34,900 50 Level Minneapolis Center
Tue 02:42:08 AM 47.5156 -90.1889 118° Southeast 536 617 35,000 50 Climbing Minneapolis Center
Tue 02:43:08 AM 47.4561 -90.0119 116° Southeast 539 620 35,000  Level Minneapolis Center
Tue 02:44:09 AM 47.3764 -89.7953 118° Southeast 540 621 35,000  Level Minneapolis Center
Tue 02:45:09 AM 47.3058 -89.5972 118° Southeast 542 624 35,000  Level Minneapolis Center
Tue 02:46:09 AM 47.2356 -89.4000 118° Southeast 542 624 35,000  Level Minneapolis Center
Tue 02:47:10 AM 47.1633 -89.2025 118° Southeast 545 627 35,000  Level Minneapolis Center
Tue 02:48:10 AM 47.0928 -89.0047 118° Southeast 545 627 35,000  Level Minneapolis Center
Tue 02:49:10 AM 47.0211 -88.8094 118° Southeast 543 625 35,000  Level Minneapolis Center
Tue 02:50:10 AM 46.9489 -88.6147 118° Southeast 542 624 35,000  Level Minneapolis Center
Tue 02:51:11 AM 46.8778 -88.4208 118° Southeast 541 623 35,000  Level Minneapolis Center
Tue 02:52:11 AM 46.8047 -88.2264 119° Southeast 543 625 35,000  Level Minneapolis Center
Tue 02:53:12 AM 46.7308 -88.0339 119° Southeast 542 624 35,000  Level Minneapolis Center
Tue 02:54:12 AM 46.6586 -87.8411 119° Southeast 542 624 35,000 -50 Level Minneapolis Center
Tue 02:55:12 AM 46.5964 -87.6831 120° Southeast 542 624 34,900  Descending Minneapolis Center
Tue 02:56:12 AM 46.5236 -87.4919 119° Southeast 541 623 35,000  Climbing Minneapolis Center
Tue 02:57:13 AM 46.4497 -87.3000 119° Southeast 545 627 34,900 -50 Descending Minneapolis Center
Tue 02:58:13 AM 46.3747 -87.1097 120° Southeast 544 626 34,900  Level Minneapolis Center
Tue 02:59:13 AM 46.2992 -86.9181 120° Southeast 549 632 34,900  Level Minneapolis Center
Tue 03:00:14 AM 46.2242 -86.7267 119° Southeast 548 631 34,900 50 Level Minneapolis Center
Tue 03:01:14 AM 46.1469 -86.5369 120° Southeast 548 631 35,000 50 Climbing Minneapolis Center
Tue 03:02:14 AM 46.0550 -86.3081 120° Southeast 549 632 35,000  Level Minneapolis Center
Tue 03:03:15 AM 45.9794 -86.1186 120° Southeast 546 628 35,000 -50 Level Minneapolis Center
Tue 03:04:15 AM 45.9028 -85.9308 120° Southeast 545 627 34,900 -50 Descending Minneapolis Center
Tue 03:05:15 AM 45.8253 -85.7439 121° Southeast 545 627 34,900 50 Level Minneapolis Center
Tue 03:06:15 AM 45.7489 -85.5589 121° Southeast 541 623 35,000  Climbing Minneapolis Center
Tue 03:07:16 AM 45.6711 -85.3736 121° Southeast 542 624 34,900 -50 Descending Minneapolis Center
Tue 03:08:16 AM 45.5947 -85.1889 121° Southeast 539 620 34,900  Level Minneapolis Center
Tue 03:09:16 AM 45.5167 -85.0036 121° Southeast 543 625 34,900  Level Minneapolis Center
Tue 03:10:17 AM 45.4389 -84.8197 121° Southeast 541 623 34,900  Level Minneapolis Center
Tue 03:11:17 AM 45.3594 -84.6364 122° Southeast 542 624 34,900  Level Minneapolis Center
Tue 03:12:17 AM 45.2803 -84.4511 121° Southeast 546 628 34,900 50 Level Minneapolis Center
Tue 03:13:17 AM 45.2019 -84.2681 121° Southeast 544 626 35,000 25 Climbing Minneapolis Center
Tue 03:15:00 AM 45.0917 -84.0084 121° Southeast  Level FlightAware Approximate
Tue 03:16:18 AM 44.9633 -83.7214 121° Southeast 545 627 35,000  Level Minneapolis Center
Tue 03:18:09 AM 44.8000 -83.4000 126° Southeast 550 633 35,000  Level Toronto Center
Tue 03:19:09 AM 44.7333 -83.2000 115° Southeast 540 621 35,000  Level Toronto Center
Tue 03:20:09 AM 44.6500 -83.0333 125° Southeast 540 621 35,000  Level Toronto Center
Tue 03:21:09 AM 44.5667 -82.8333 120° Southeast 550 633 35,000  Level Toronto Center
Tue 03:22:00 AM 44.6362 -82.9601 121° Southeast  Level FlightAware Approximate
Tue 03:22:09 AM 44.4667 -82.6667 130° Southeast 530 610 35,000  Level Toronto Center
Tue 03:23:09 AM 44.4000 -82.5000 119° Southeast 520 598 35,000  Level Toronto Center
Tue 03:24:09 AM 44.3167 -82.3333 125° Southeast 510 587 35,000  Level Toronto Center
Tue 03:25:09 AM 44.2500 -82.2000 125° Southeast 500 575 35,000 -700 Level Toronto Center
Tue 03:26:09 AM 44.1667 -82.0333 125° Southeast 490 564 33,600 -2,050 Descending Toronto Center
Tue 03:27:09 AM 44.1000 -81.8833 122° Southeast 480 552 30,900 -2,650 Descending Toronto Center
Tue 03:28:09 AM 44.0167 -81.7167 125° Southeast 470 541 28,300 -2,400 Descending Toronto Center
Tue 03:29:09 AM 43.9500 -81.5833 125° Southeast 460 529 26,100 -2,150 Descending Toronto Center
Tue 03:30:09 AM 43.8833 -81.4333 122° Southeast 440 506 24,000 -2,200 Descending Toronto Center
Tue 03:31:09 AM 43.8000 -81.3000 131° Southeast 420 483 21,700 -2,200 Descending Toronto Center
Tue 03:32:09 AM 43.7500 -81.1833 121° Southeast 400 460 19,600 -2,100 Descending Toronto Center
Tue 03:33:09 AM 43.6833 -81.0667 128° Southeast 390 449 17,500 -2,300 Descending Toronto Center
Tue 03:34:09 AM 43.6167 -80.9500 128° Southeast 380 437 15,000 -2,750 Descending Toronto Center
Tue 03:35:09 AM 43.5667 -80.8000 115° Southeast 380 437 12,000 -2,050 Descending Toronto Center
Tue 03:36:09 AM 43.5167 -80.7167 130° Southeast 360 414 10,900 -1,050 Descending Toronto Center
Tue 03:37:09 AM 43.4667 -80.6000 121° Southeast 320 368 9,900 -1,450 Descending Toronto Center
Tue 03:38:09 AM 43.4167 -80.5000 125° Southeast 290 334 8,000 -1,850 Descending Toronto Center
Tue 03:39:09 AM 43.3667 -80.4333 136° Southeast 290 334 6,200 -1,700 Descending Toronto Center
Tue 03:40:09 AM 43.3167 -80.3500 129° Southeast 280 322 4,600 -1,350 Descending Toronto Center
Tue 03:41:09 AM 43.2833 -80.2667 119° Southeast 260 299 3,500 -950 Descending Toronto Center
Tue 03:42:09 AM 43.2333 -80.2000 136° Southeast 240 276 2,700 -350 Descending Toronto Center
Tue 03:43:09 AM 43.2167 -80.1333 109° East 220 253 2,800  Climbing Toronto Center
Tue 03:44:09 AM 43.2000 -80.0500 105° East 200 230 2,700 -550 Descending Toronto Center
Tue 03:45:09 AM 43.1833 -80.0000 115° Southeast 150 173 1,700 -800 Descending Toronto Center
Tue 03:46:09 AM 43.1667 -79.9500 115° Southeast 140 161 1,100 -450 Descending Toronto Center
Tue 03:47:09 AM 43.1667 -79.9000 90° East 100 115 800 -300 Descending Toronto Center

Login

Don't have an account? Register now (free) for customized features, flight alerts, and more!